Time;durP1;ratioP1;P1;durP2;ratioP2;P2;SDS_P1;SDS_P2;PMS_P1;PMS_P2;Temp;Humidity;BMP_temperature;BMP_pressure;BME280_temperature;BME280_humidity;BME280_pressure;Samples;Min_cycle;Max_cycle;Signal;HPM_P1;HPM_P2
2022/06/22 00:01:36;;;;;;;;;;;;;;;26.53;43.28;100096.51;105258;1301;61274;-82
2022/06/22 00:04:02;;;;;;;;;;;;;;;26.53;43.59;100101.61;105148;1303;61140;-82
2022/06/22 00:06:32;;;;;;;;;;;;;;;26.53;43.36;100113.65;105209;1303;61371;-82
2022/06/22 00:08:58;;;;;;;;;;;;;;;26.52;43.45;100120.43;105261;1303;72836;-82
2022/06/22 00:11:24;;;;;;;;;;;;;;;26.52;43.35;100127.10;105178;1301;61255;-82
2022/06/22 00:13:51;;;;;;;;;;;;;;;26.53;43.48;100126.73;105262;1303;61266;-82
2022/06/22 00:16:23;;;;;;;;;;;;;;;26.52;43.42;100126.24;105178;1303;61361;-82
2022/06/22 00:18:49;;;;;;;;;;;;;;;26.52;43.36;100125.84;105268;1301;72724;-82
2022/06/22 00:21:26;;;;;;;;;;;;;;;26.52;43.42;100121.02;105112;1301;61377;-82
2022/06/22 00:23:56;;;;;;;;;;;;;;;26.52;43.45;100118.88;105166;1303;61283;-82
2022/06/22 00:26:24;;;;;;;;;;;;;;;26.51;43.41;100120.76;105259;1303;61131;-82
2022/06/22 00:28:59;;;;;;;;;;;;;;;26.51;43.30;100125.42;105264;1303;72575;-82
2022/06/22 00:31:31;;;;;;;;;;;;;;;26.51;43.38;100131.92;105256;1303;74695;-82
2022/06/22 00:34:03;;;;;;;;;;;;;;;26.51;43.30;100137.00;105278;1302;61253;-82
2022/06/22 00:36:32;;;;;;;;;;;;;;;26.50;43.32;100134.15;105255;1301;61355;-82
2022/06/22 00:39:15;;;;;;;;;;;;;;;26.50;43.53;100136.55;105266;1302;73668;-82
2022/06/22 00:41:41;;;;;;;;;;;;;;;26.50;43.38;100128.46;105228;1303;74808;-82
2022/06/22 00:44:07;;;;;;;;;;;;;;;26.50;43.49;100128.84;105256;1303;61265;-82
2022/06/22 00:46:32;;;;;;;;;;;;;;;26.49;43.18;100129.44;105279;1303;61378;-82
2022/06/22 00:48:57;;;;;;;;;;;;;;;26.49;43.40;100122.98;105159;1303;61259;-82
2022/06/22 00:51:29;;;;;;;;;;;;;;;26.49;43.34;100119.77;104907;1303;61380;-82
2022/06/22 00:53:58;;;;;;;;;;;;;;;26.48;43.36;100116.17;105110;1302;62030;-82
2022/06/22 00:56:29;;;;;;;;;;;;;;;26.48;43.41;100114.21;105184;1303;61222;-82
2022/06/22 00:59:01;;;;;;;;;;;;;;;26.48;43.31;100116.38;105222;1303;72778;-82
2022/06/22 01:01:47;;;;;;;;;;;;;;;26.48;43.30;100123.61;105193;1303;75687;-82
2022/06/22 01:04:12;;;;;;;;;;;;;;;26.48;43.30;100129.19;105149;1303;61113;-82
2022/06/22 01:06:43;;;;;;;;;;;;;;;26.47;43.24;100129.77;105273;1302;61355;-82
2022/06/22 01:09:14;;;;;;;;;;;;;;;26.47;43.18;100134.84;105235;1302;73099;-82
2022/06/22 01:14:39;;;;;;;;;;;;;;;26.47;43.28;100136.48;105261;1303;61266;-81
2022/06/22 01:17:05;;;;;;;;;;;;;;;26.47;43.29;100137.05;105258;1303;61856;-82
2022/06/22 01:19:31;;;;;;;;;;;;;;;26.47;43.22;100133.98;105143;1303;61447;-82
2022/06/22 01:22:05;;;;;;;;;;;;;;;26.47;43.33;100133.83;105265;1303;61256;-82
2022/06/22 01:24:31;;;;;;;;;;;;;;;26.47;43.31;100133.64;105210;1302;61304;-82
2022/06/22 01:27:18;;;;;;;;;;;;;;;26.47;43.36;100138.35;105226;1303;61258;-82
2022/06/22 01:29:45;;;;;;;;;;;;;;;26.47;43.27;100141.02;105250;1302;73268;-82
2022/06/22 01:32:14;;;;;;;;;;;;;;;26.46;43.29;100151.05;105234;1303;74892;-82
2022/06/22 01:34:43;;;;;;;;;;;;;;;26.46;43.39;100152.84;105149;1303;61169;-82
2022/06/22 01:37:17;;;;;;;;;;;;;;;26.45;43.18;100154.35;105133;1303;61254;-82
2022/06/22 01:39:42;;;;;;;;;;;;;;;26.46;43.25;100154.50;105237;1303;72779;-82
2022/06/22 01:42:13;;;;;;;;;;;;;;;26.45;43.15;100156.19;105119;1302;61280;-82
2022/06/22 01:45:02;;;;;;;;;;;;;;;26.46;43.32;100155.06;105214;1303;61513;-82
2022/06/22 01:47:30;;;;;;;;;;;;;;;26.46;43.21;100154.70;104790;1306;61166;-82
2022/06/22 01:49:57;;;;;;;;;;;;;;;26.45;43.19;100156.92;104614;1306;72267;-82
2022/06/22 01:52:31;;;;;;;;;;;;;;;26.45;43.23;100162.88;104768;1306;75556;-82
2022/06/22 01:54:59;;;;;;;;;;;;;;;26.45;43.20;100162.70;104746;1306;61278;-82
2022/06/22 01:57:26;;;;;;;;;;;;;;;26.45;43.24;100162.38;104644;1306;62632;-82
2022/06/22 01:59:55;;;;;;;;;;;;;;;26.44;43.16;100162.80;104740;1306;73008;-82
2022/06/22 02:02:25;;;;;;;;;;;;;;;26.44;43.17;100164.05;104595;1306;77114;-82
2022/06/22 02:04:55;;;;;;;;;;;;;;;26.44;43.19;100168.55;104743;1306;61268;-82
2022/06/22 02:07:44;;;;;;;;;;;;;;;26.44;43.22;100171.13;104743;1306;61593;-82
2022/06/22 02:10:10;;;;;;;;;;;;;;;26.43;43.14;100169.14;104580;1309;73022;-82
2022/06/22 02:12:38;;;;;;;;;;;;;;;26.43;43.12;100168.11;104794;1306;61282;-82
2022/06/22 02:15:08;;;;;;;;;;;;;;;26.43;43.03;100166.48;104638;1306;61260;-81
2022/06/22 02:17:36;;;;;;;;;;;;;;;26.43;42.98;100168.65;104623;1306;61210;-81
2022/06/22 02:20:19;;;;;;;;;;;;;;;26.43;43.17;100169.23;104607;1306;72815;-81
2022/06/22 02:22:49;;;;;;;;;;;;;;;26.42;43.13;100172.67;104745;1306;74587;-81
2022/06/22 02:25:14;;;;;;;;;;;;;;;26.43;43.23;100175.56;105002;1303;61362;-81
2022/06/22 02:27:40;;;;;;;;;;;;;;;26.42;43.02;100181.91;105197;1303;61429;-81
2022/06/22 02:30:06;;;;;;;;;;;;;;;26.42;42.90;100186.20;105267;1301;61388;-81
2022/06/22 02:32:35;;;;;;;;;;;;;;;26.42;43.12;100194.02;105242;1303;61351;-81
2022/06/22 02:35:01;;;;;;;;;;;;;;;26.42;43.10;100204.64;105188;1301;61146;-81
2022/06/22 02:37:28;;;;;;;;;;;;;;;26.42;42.85;100204.51;105159;1301;61377;-81
2022/06/22 02:39:57;;;;;;;;;;;;;;;26.42;43.11;100201.63;105165;1303;61272;-81
2022/06/22 02:45:07;;;;;;;;;;;;;;;26.41;43.14;100208.02;105244;1302;61698;-81
2022/06/22 02:48:02;;;;;;;;;;;;;;;26.41;42.99;100215.21;105166;1303;61182;-81
2022/06/22 02:50:37;;;;;;;;;;;;;;;26.41;43.03;100223.50;105130;1303;73779;-81
2022/06/22 02:53:15;;;;;;;;;;;;;;;26.41;42.99;100221.34;105089;1303;75854;-81
2022/06/22 02:55:40;;;;;;;;;;;;;;;26.42;43.21;100222.56;105269;1301;61167;-81
2022/06/22 02:58:23;;;;;;;;;;;;;;;26.41;43.00;100228.20;105143;1301;61303;-81
2022/06/22 03:00:48;;;;;;;;;;;;;;;26.41;43.09;100211.80;105218;1303;73699;-81
2022/06/22 03:03:14;;;;;;;;;;;;;;;26.41;42.96;100207.47;105235;1303;61230;-81
2022/06/22 03:05:40;;;;;;;;;;;;;;;26.41;43.05;100212.55;105242;1303;61278;-81
2022/06/22 03:08:05;;;;;;;;;;;;;;;26.40;43.06;100209.52;105217;1303;61619;-82
2022/06/22 03:11:00;;;;;;;;;;;;;;;26.41;43.13;100208.79;105250;1302;61307;-82
2022/06/22 03:13:28;;;;;;;;;;;;;;;26.40;43.12;100204.86;104746;1306;74937;-82
2022/06/22 03:15:53;;;;;;;;;;;;;;;26.40;43.07;100209.91;104640;1306;61156;-81
2022/06/22 03:18:23;;;;;;;;;;;;;;;26.41;42.97;100212.02;104793;1306;61297;-81
2022/06/22 03:20:50;;;;;;;;;;;;;;;26.40;43.09;100214.91;104655;1306;72697;-82
2022/06/22 03:23:21;;;;;;;;;;;;;;;26.40;42.99;100217.99;104585;1306;75707;-82
2022/06/22 03:25:57;;;;;;;;;;;;;;;26.41;43.16;100218.66;104643;1306;61371;-82
2022/06/22 03:28:24;;;;;;;;;;;;;;;26.41;43.01;100208.77;104676;1309;61139;-82
2022/06/22 03:30:57;;;;;;;;;;;;;;;26.41;42.93;100213.83;104596;1309;72911;-81
2022/06/22 03:33:27;;;;;;;;;;;;;;;26.40;42.97;100219.44;104778;1306;75740;-81
2022/06/22 03:35:53;;;;;;;;;;;;;;;26.41;42.97;100223.20;104656;1307;61261;-82
2022/06/22 03:38:20;;;;;;;;;;;;;;;26.40;42.84;100223.41;104649;1306;62560;-82
2022/06/22 03:40:47;;;;;;;;;;;;;;;26.41;43.08;100227.87;104642;1306;74757;-82
2022/06/22 03:43:14;;;;;;;;;;;;;;;26.40;43.16;100229.36;104756;1306;75768;-81
2022/06/22 03:45:53;;;;;;;;;;;;;;;26.41;42.95;100236.73;104649;1306;61310;-82
2022/06/22 03:48:39;;;;;;;;;;;;;;;26.41;42.97;100241.93;104771;1306;61153;-81
2022/06/22 03:51:04;;;;;;;;;;;;;;;26.41;43.06;100248.60;105032;1303;72638;-82
2022/06/22 03:53:37;;;;;;;;;;;;;;;26.41;43.00;100246.09;105226;1301;61332;-83
2022/06/22 03:56:04;;;;;;;;;;;;;;;26.41;42.87;100250.56;105159;1303;61256;-82
2022/06/22 03:58:30;;;;;;;;;;;;;;;26.41;43.11;100252.02;105020;1303;61049;-82
2022/06/22 04:00:56;;;;;;;;;;;;;;;26.41;42.85;100258.88;105131;1303;61355;-82
2022/06/22 04:03:22;;;;;;;;;;;;;;;26.41;43.01;100259.80;105134;1303;62463;-82
2022/06/22 04:05:50;;;;;;;;;;;;;;;26.40;43.10;100259.13;105114;1303;61278;-82
2022/06/22 04:08:20;;;;;;;;;;;;;;;26.40;42.97;100254.86;105123;1303;61425;-82
2022/06/22 04:10:51;;;;;;;;;;;;;;;26.39;42.93;100249.85;104813;1303;72165;-82
2022/06/22 04:13:18;;;;;;;;;;;;;;;26.40;43.06;100243.31;105097;1302;75898;-82
2022/06/22 04:15:47;;;;;;;;;;;;;;;26.39;43.10;100241.26;104997;1302;61682;-82
2022/06/22 04:18:15;;;;;;;;;;;;;;;26.39;42.99;100235.27;105004;1302;61167;-82
2022/06/22 04:20:50;;;;;;;;;;;;;;;26.39;43.09;100231.69;105082;1302;73748;-82
2022/06/22 04:23:36;;;;;;;;;;;;;;;26.38;42.83;100239.86;104892;1303;74788;-82
2022/06/22 04:26:15;;;;;;;;;;;;;;;26.39;42.98;100234.26;105100;1302;61260;-82
2022/06/22 04:28:41;;;;;;;;;;;;;;;26.39;42.89;100232.80;104888;1302;61441;-82
2022/06/22 04:31:07;;;;;;;;;;;;;;;26.38;42.70;100230.84;105064;1303;61205;-82
2022/06/22 04:33:35;;;;;;;;;;;;;;;26.39;42.71;100233.01;104930;1301;61310;-82
2022/06/22 04:36:05;;;;;;;;;;;;;;;26.39;42.68;100240.92;104943;1302;62127;-82
2022/06/22 04:38:39;;;;;;;;;;;;;;;26.39;42.57;100235.77;104922;1302;61959;-82
2022/06/22 04:41:24;;;;;;;;;;;;;;;26.39;42.52;100240.31;105091;1302;72828;-82
2022/06/22 04:43:49;;;;;;;;;;;;;;;26.40;42.21;100243.86;105072;1303;74663;-83
2022/06/22 04:46:17;;;;;;;;;;;;;;;26.40;42.32;100253.05;104935;1302;62024;-83
2022/06/22 04:48:46;;;;;;;;;;;;;;;26.41;42.40;100246.67;104848;1302;61277;-82
2022/06/22 04:51:13;;;;;;;;;;;;;;;26.41;42.07;100246.60;104796;1302;72672;-83
2022/06/22 04:53:41;;;;;;;;;;;;;;;26.41;41.97;100249.35;104924;1302;76055;-83
2022/06/22 04:56:08;;;;;;;;;;;;;;;26.41;41.99;100251.34;105034;1302;61353;-83
2022/06/22 04:58:37;;;;;;;;;;;;;;;26.41;41.90;100245.73;104986;1302;62452;-82
2022/06/22 05:01:03;;;;;;;;;;;;;;;26.40;41.85;100250.66;105060;1303;73563;-82
2022/06/22 05:03:28;;;;;;;;;;;;;;;26.41;41.77;100251.00;105137;1302;61366;-82
2022/06/22 05:05:54;;;;;;;;;;;;;;;26.40;41.63;100252.66;105027;1302;61375;-82
2022/06/22 05:08:22;;;;;;;;;;;;;;;26.40;41.30;100261.02;104916;1303;61268;-83
2022/06/22 05:10:56;;;;;;;;;;;;;;;26.38;41.23;100262.60;104857;1303;61242;-82
2022/06/22 05:13:32;;;;;;;;;;;;;;;26.37;40.93;100265.92;105069;1302;74585;-82
2022/06/22 05:15:57;;;;;;;;;;;;;;;26.38;40.98;100269.86;104834;1302;61547;-82
2022/06/22 05:18:25;;;;;;;;;;;;;;;26.38;40.94;100275.44;104930;1303;61175;-82
2022/06/22 05:20:55;;;;;;;;;;;;;;;26.37;40.70;100278.65;104897;1303;61287;-82
2022/06/22 05:23:21;;;;;;;;;;;;;;;26.36;40.54;100283.23;104951;1303;75604;-82
2022/06/22 05:25:49;;;;;;;;;;;;;;;26.37;40.47;100275.05;105065;1303;61126;-82
2022/06/22 05:28:17;;;;;;;;;;;;;;;26.38;40.24;100273.48;104986;1302;61459;-82
2022/06/22 05:30:50;;;;;;;;;;;;;;;26.39;40.24;100271.02;105000;1302;72605;-82
2022/06/22 05:33:17;;;;;;;;;;;;;;;26.39;40.01;100271.91;105103;1303;75683;-82
2022/06/22 05:35:45;;;;;;;;;;;;;;;26.39;40.05;100275.48;105032;1303;61192;-82
2022/06/22 05:38:10;;;;;;;;;;;;;;;26.39;39.67;100273.73;105024;1303;61763;-82
2022/06/22 05:40:36;;;;;;;;;;;;;;;26.38;39.65;100276.70;105151;1302;62003;-82
2022/06/22 05:43:01;;;;;;;;;;;;;;;26.39;39.71;100282.96;105120;1303;61391;-82
2022/06/22 05:45:28;;;;;;;;;;;;;;;26.39;39.78;100280.25;104859;1302;61377;-82
2022/06/22 05:47:54;;;;;;;;;;;;;;;26.39;39.61;100274.77;105094;1302;61281;-82
2022/06/22 05:50:41;;;;;;;;;;;;;;;26.38;39.45;100277.44;105085;1302;61285;-82
2022/06/22 05:53:22;;;;;;;;;;;;;;;26.37;39.15;100279.86;105265;1303;75879;-82
2022/06/22 05:55:58;;;;;;;;;;;;;;;26.37;39.16;100281.45;105056;1303;61280;-82
2022/06/22 05:58:54;;;;;;;;;;;;;;;26.37;38.97;100292.81;105106;1303;61081;-85
2022/06/22 06:01:31;;;;;;;;;;;;;;;26.36;38.79;100297.08;104612;1306;72702;-82
2022/06/22 06:04:00;;;;;;;;;;;;;;;26.36;38.63;100293.14;104500;1309;74655;-82
2022/06/22 06:06:29;;;;;;;;;;;;;;;26.34;38.43;100284.50;104408;1308;61312;-82
2022/06/22 06:08:58;;;;;;;;;;;;;;;26.32;38.30;100285.80;104415;1306;61623;-82
2022/06/22 06:11:26;;;;;;;;;;;;;;;26.30;38.02;100279.36;104550;1305;73945;-82
2022/06/22 06:13:56;;;;;;;;;;;;;;;26.29;38.08;100276.86;104490;1306;75984;-82
2022/06/22 06:16:25;;;;;;;;;;;;;;;26.29;38.00;100281.42;104477;1306;61304;-82
2022/06/22 06:18:50;;;;;;;;;;;;;;;26.29;37.64;100279.98;104601;1306;61103;-82
2022/06/22 06:21:17;;;;;;;;;;;;;;;26.29;37.62;100274.36;104575;1306;62087;-82
2022/06/22 06:23:44;;;;;;;;;;;;;;;26.29;37.47;100270.95;104506;1306;61256;-82
2022/06/22 06:29:20;;;;;;;;;;;;;;;26.28;37.22;100266.87;103979;1306;62894;-82
2022/06/22 06:31:49;;;;;;;;;;;;;;;26.28;36.90;100265.14;104519;1306;72892;-82
2022/06/22 06:34:19;;;;;;;;;;;;;;;26.25;36.64;100267.87;104638;1306;75660;-82
2022/06/22 06:36:46;;;;;;;;;;;;;;;26.24;36.63;100267.48;104659;1306;61282;-82
2022/06/22 06:39:13;;;;;;;;;;;;;;;26.24;36.52;100268.02;104904;1302;61381;-82
2022/06/22 06:41:46;;;;;;;;;;;;;;;26.24;36.59;100259.92;105103;1303;72877;-82
2022/06/22 06:44:16;;;;;;;;;;;;;;;26.25;36.54;100259.23;104731;1303;74983;-82
2022/06/22 06:46:44;;;;;;;;;;;;;;;26.25;36.37;100262.65;104957;1302;61279;-82
2022/06/22 06:49:09;;;;;;;;;;;;;;;26.24;36.13;100261.13;104920;1302;61098;-82
2022/06/22 06:51:35;;;;;;;;;;;;;;;26.26;36.11;100261.01;105009;1302;61244;-82
2022/06/22 06:54:20;;;;;;;;;;;;;;;26.28;36.18;100256.27;104933;1301;59334;-82
2022/06/22 06:56:51;;;;;;;;;;;;;;;26.29;36.07;100256.52;104968;1302;62012;-81
2022/06/22 06:59:17;;;;;;;;;;;;;;;26.30;36.15;100252.35;105136;1302;61144;-81
2022/06/22 07:01:45;;;;;;;;;;;;;;;26.31;35.92;100244.64;105166;1303;73037;-81
2022/06/22 07:04:14;;;;;;;;;;;;;;;26.32;35.96;100237.86;105120;1303;74761;-81
2022/06/22 07:06:39;;;;;;;;;;;;;;;26.33;35.81;100230.29;105112;1302;61807;-82
2022/06/22 07:09:20;;;;;;;;;;;;;;;26.34;35.76;100224.98;104889;1302;61303;-82
2022/06/22 07:11:45;;;;;;;;;;;;;;;26.35;35.56;100222.91;105032;1303;72912;-82
2022/06/22 07:14:17;;;;;;;;;;;;;;;26.35;35.50;100220.38;104893;1302;61252;-82
2022/06/22 07:16:42;;;;;;;;;;;;;;;26.35;35.50;100225.80;105110;1301;61218;-83
2022/06/22 07:19:27;;;;;;;;;;;;;;;26.36;35.70;100224.98;105142;1301;61325;-82
2022/06/22 07:21:55;;;;;;;;;;;;;;;26.36;35.68;100221.00;105081;1302;72886;-82
2022/06/22 07:24:34;;;;;;;;;;;;;;;26.37;35.61;100215.86;105058;1301;74725;-82
2022/06/22 07:27:12;;;;;;;;;;;;;;;26.37;35.53;100214.68;105012;1303;61134;-81
2022/06/22 07:29:40;;;;;;;;;;;;;;;26.38;35.59;100211.73;104992;1303;61186;-82
2022/06/22 07:32:15;;;;;;;;;;;;;;;26.39;35.72;100210.23;105031;1302;72973;-81
2022/06/22 07:34:49;;;;;;;;;;;;;;;26.40;35.39;100208.69;105108;1301;74613;-81
2022/06/22 07:37:18;;;;;;;;;;;;;;;26.41;35.48;100211.77;104977;1300;61232;-82
2022/06/22 07:40:09;;;;;;;;;;;;;;;26.42;35.40;100213.70;105013;1303;61384;-81
2022/06/22 07:42:35;;;;;;;;;;;;;;;26.43;35.59;100212.66;105034;1302;73750;-82
2022/06/22 07:45:01;;;;;;;;;;;;;;;26.43;35.60;100209.55;104998;1302;61326;-82
2022/06/22 07:47:51;;;;;;;;;;;;;;;26.45;35.52;100211.28;105053;1302;61524;-82
2022/06/22 07:50:19;;;;;;;;;;;;;;;26.46;35.44;100210.45;104901;1301;61245;-82
2022/06/22 07:52:46;;;;;;;;;;;;;;;26.45;35.30;100215.52;105117;1301;73998;-82
2022/06/22 07:55:14;;;;;;;;;;;;;;;26.45;35.56;100216.46;105073;1303;74799;-82
2022/06/22 07:57:42;;;;;;;;;;;;;;;26.46;35.55;100217.52;105050;1301;61394;-82
2022/06/22 08:00:12;;;;;;;;;;;;;;;26.45;35.36;100215.89;104968;1302;61149;-82
2022/06/22 08:02:46;;;;;;;;;;;;;;;26.46;35.49;100212.24;105052;1302;73749;-82
2022/06/22 08:05:13;;;;;;;;;;;;;;;26.46;35.63;100208.02;104995;1299;74944;-83
2022/06/22 08:07:44;;;;;;;;;;;;;;;26.47;35.55;100208.70;105016;1302;61045;-82
2022/06/22 08:10:29;;;;;;;;;;;;;;;26.47;35.42;100204.73;104933;1303;61537;-82
2022/06/22 08:12:55;;;;;;;;;;;;;;;26.47;35.59;100203.25;104730;1303;73236;-82
2022/06/22 08:15:20;;;;;;;;;;;;;;;26.48;35.55;100200.34;105134;1302;61254;-82
2022/06/22 08:17:50;;;;;;;;;;;;;;;26.49;35.61;100202.89;105087;1302;61407;-83
2022/06/22 08:20:20;;;;;;;;;;;;;;;26.50;35.55;100202.18;105160;1302;61269;-82
2022/06/22 08:22:45;;;;;;;;;;;;;;;26.51;35.55;100198.56;105041;1302;74959;-82
2022/06/22 08:25:11;;;;;;;;;;;;;;;26.51;35.55;100195.95;105026;1303;61455;-82
2022/06/22 08:27:38;;;;;;;;;;;;;;;26.52;35.47;100202.26;105008;1302;61303;-82
2022/06/22 08:30:04;;;;;;;;;;;;;;;26.51;35.58;100204.46;105073;1301;61289;-82
2022/06/22 08:32:30;;;;;;;;;;;;;;;26.51;35.33;100203.39;104957;1301;61300;-82
2022/06/22 08:34:57;;;;;;;;;;;;;;;26.51;35.32;100204.15;105133;1302;61285;-82
2022/06/22 08:37:42;;;;;;;;;;;;;;;26.50;35.38;100207.45;105054;1300;61298;-82
2022/06/22 08:40:14;;;;;;;;;;;;;;;26.49;35.53;100203.02;105064;1301;61258;-82
2022/06/22 08:42:40;;;;;;;;;;;;;;;26.50;35.28;100204.55;105096;1302;72751;-82
2022/06/22 08:45:24;;;;;;;;;;;;;;;26.50;35.43;100207.97;105011;1302;61265;-81
2022/06/22 08:48:05;;;;;;;;;;;;;;;26.50;35.51;100209.42;104791;1302;61246;-81
2022/06/22 08:50:57;;;;;;;;;;;;;;;26.51;35.39;100206.48;105096;1301;61117;-81
2022/06/22 08:53:28;;;;;;;;;;;;;;;26.51;35.49;100206.96;104668;1302;72900;-82
2022/06/22 08:55:59;;;;;;;;;;;;;;;26.52;35.30;100202.56;105121;1302;75848;-82
2022/06/22 08:58:30;;;;;;;;;;;;;;;26.53;35.37;100201.26;105099;1301;61150;-82
2022/06/22 09:01:08;;;;;;;;;;;;;;;26.53;35.60;100202.27;105025;1302;61368;-81
2022/06/22 09:03:49;;;;;;;;;;;;;;;26.53;35.45;100204.84;105097;1301;74175;-81
2022/06/22 09:06:33;;;;;;;;;;;;;;;26.53;35.41;100201.18;104797;1302;75680;-82
2022/06/22 09:09:05;;;;;;;;;;;;;;;26.53;35.41;100193.06;105041;1302;61378;-82
2022/06/22 09:11:33;;;;;;;;;;;;;;;26.53;35.46;100189.98;105064;1301;61158;-82
2022/06/22 09:14:09;;;;;;;;;;;;;;;26.53;35.31;100186.77;105137;1301;73686;-82
2022/06/22 09:16:55;;;;;;;;;;;;;;;26.53;35.44;100189.10;104904;1302;75855;-82
2022/06/22 09:19:32;;;;;;;;;;;;;;;26.53;35.18;100188.77;104933;1303;61320;-81
2022/06/22 09:22:18;;;;;;;;;;;;;;;26.52;35.25;100187.18;105080;1302;61156;-81
2022/06/22 09:24:54;;;;;;;;;;;;;;;26.52;35.18;100186.16;104943;1302;73376;-81
2022/06/22 09:27:21;;;;;;;;;;;;;;;26.51;35.19;100186.80;104875;1302;74960;-81
2022/06/22 09:29:53;;;;;;;;;;;;;;;26.51;35.05;100182.70;105267;1301;61253;-82
2022/06/22 09:32:26;;;;;;;;;;;;;;;26.50;34.97;100175.73;105007;1303;61462;-82
2022/06/22 09:35:20;;;;;;;;;;;;;;;26.50;35.04;100171.98;105120;1300;73971;-81
2022/06/22 09:37:58;;;;;;;;;;;;;;;26.50;34.75;100171.86;104552;1305;74719;-81
2022/06/22 09:40:26;;;;;;;;;;;;;;;26.51;35.08;100178.14;104646;1306;61397;-81
2022/06/22 09:43:21;;;;;;;;;;;;;;;26.50;34.81;100172.95;104514;1306;61280;-81
2022/06/22 09:45:55;;;;;;;;;;;;;;;26.50;34.56;100169.05;104321;1310;73772;-81
2022/06/22 09:48:34;;;;;;;;;;;;;;;26.49;34.54;100164.31;104319;1312;74945;-81
2022/06/22 09:51:29;;;;;;;;;;;;;;;26.48;34.49;100159.64;104374;1312;61359;-81
2022/06/22 09:54:07;;;;;;;;;;;;;;;26.48;34.37;100160.96;104232;1312;61721;-81
2022/06/22 09:56:51;;;;;;;;;;;;;;;26.48;34.51;100157.01;104443;1309;73693;-81
2022/06/22 09:59:46;;;;;;;;;;;;;;;26.47;34.43;100157.25;104443;1308;74774;-81
2022/06/22 10:02:27;;;;;;;;;;;;;;;26.47;34.33;100152.71;103942;1314;61325;-81
2022/06/22 10:05:12;;;;;;;;;;;;;;;26.47;34.15;100150.23;103899;1314;61732;-82
2022/06/22 10:07:59;;;;;;;;;;;;;;;26.45;34.11;100154.56;104005;1315;72849;-81
2022/06/22 10:10:25;;;;;;;;;;;;;;;26.46;33.93;100158.48;103907;1314;76278;-82
2022/06/22 10:12:58;;;;;;;;;;;;;;;26.46;34.15;100160.41;104038;1314;61319;-81
2022/06/22 10:15:30;;;;;;;;;;;;;;;26.46;34.01;100162.23;104261;1311;61189;-81
2022/06/22 10:18:01;;;;;;;;;;;;;;;26.46;34.02;100166.95;104571;1306;73783;-82
2022/06/22 10:20:32;;;;;;;;;;;;;;;26.46;33.74;100167.89;104397;1306;74672;-82
2022/06/22 10:23:20;;;;;;;;;;;;;;;26.45;33.85;100163.29;104395;1308;61387;-81
2022/06/22 10:26:00;;;;;;;;;;;;;;;26.45;33.68;100167.06;105238;1307;60146;-83
2022/06/22 10:28:28;;;;;;;;;;;;;;;26.46;33.66;100165.52;105468;1307;64944;-82
2022/06/22 10:30:58;;;;;;;;;;;;;;;26.47;33.81;100172.05;105465;1307;65803;-82
2022/06/22 10:33:28;;;;;;;;;;;;;;;26.48;33.87;100173.04;105380;1308;58995;-82
2022/06/22 10:36:06;;;;;;;;;;;;;;;26.50;33.77;100174.67;104576;1308;61161;-82
2022/06/22 10:38:44;;;;;;;;;;;;;;;26.52;33.90;100174.45;104556;1303;72784;-81
2022/06/22 10:47:15;;;;;;;;;;;;;;;26.52;33.54;100155.81;105075;1301;61167;-81
2022/06/22 10:49:54;;;;;;;;;;;;;;;26.52;33.45;100161.64;105040;1302;73934;-82
2022/06/22 10:52:28;;;;;;;;;;;;;;;26.50;33.42;100155.80;104997;1301;75885;-81
2022/06/22 10:55:03;;;;;;;;;;;;;;;26.50;33.43;100154.24;105011;1303;61282;-81
2022/06/22 10:57:42;;;;;;;;;;;;;;;26.50;33.36;100153.70;105096;1302;61258;-81
2022/06/22 11:00:09;;;;;;;;;;;;;;;26.49;33.34;100154.00;105043;1302;72751;-81
2022/06/22 11:02:53;;;;;;;;;;;;;;;26.49;33.54;100154.37;105330;1301;75628;-81
2022/06/22 11:05:37;;;;;;;;;;;;;;;26.48;33.38;100149.39;105047;1302;61021;-81
2022/06/22 11:08:21;;;;;;;;;;;;;;;26.48;33.28;100142.31;105099;1303;61271;-81
2022/06/22 11:10:56;;;;;;;;;;;;;;;26.48;33.29;100139.98;104963;1302;73810;-81
2022/06/22 11:13:21;;;;;;;;;;;;;;;26.49;33.21;100141.89;104882;1301;74737;-82
2022/06/22 11:15:54;;;;;;;;;;;;;;;26.49;33.33;100137.77;105080;1301;61438;-81
2022/06/22 11:18:34;;;;;;;;;;;;;;;26.49;33.27;100133.30;105155;1301;61470;-81
2022/06/22 11:21:00;;;;;;;;;;;;;;;26.48;32.94;100125.70;105136;1301;73640;-81
2022/06/22 11:23:38;;;;;;;;;;;;;;;26.49;32.94;100123.52;105206;1302;61381;-81
2022/06/22 11:32:09;;;;;;;;;;;;;;;26.47;32.85;100122.94;104951;1303;72706;-81
2022/06/22 11:35:03;;;;;;;;;;;;;;;26.47;32.57;100122.63;104951;1301;75622;-81
2022/06/22 11:37:38;;;;;;;;;;;;;;;26.46;32.85;100115.45;104924;1301;61574;-81
2022/06/22 11:40:36;;;;;;;;;;;;;;;26.47;32.75;100117.36;105192;1302;61146;-81
2022/06/22 11:43:08;;;;;;;;;;;;;;;26.48;32.74;100115.70;104618;1308;72846;-81
2022/06/22 11:45:54;;;;;;;;;;;;;;;26.48;32.83;100121.27;104619;1309;74814;-81
2022/06/22 11:48:25;;;;;;;;;;;;;;;26.47;32.53;100127.85;104675;1308;61276;-81
2022/06/22 11:51:12;;;;;;;;;;;;;;;26.47;32.53;100120.06;104646;1309;61266;-81
2022/06/22 11:53:56;;;;;;;;;;;;;;;26.47;32.64;100117.90;104561;1308;73992;-81
2022/06/22 11:56:27;;;;;;;;;;;;;;;26.48;32.61;100114.00;104587;1309;76169;-81
2022/06/22 11:59:00;;;;;;;;;;;;;;;26.49;32.47;100115.54;104637;1309;61247;-81
2022/06/22 12:01:44;;;;;;;;;;;;;;;26.51;32.54;100132.15;104635;1309;61508;-81
2022/06/22 12:04:22;;;;;;;;;;;;;;;26.51;32.72;100122.58;104654;1307;72668;-81
2022/06/22 12:06:52;;;;;;;;;;;;;;;26.52;32.54;100116.70;104559;1308;74775;-82
2022/06/22 12:09:27;;;;;;;;;;;;;;;26.52;32.53;100116.44;104584;1309;61458;-81
2022/06/22 12:12:11;;;;;;;;;;;;;;;26.53;32.49;100113.84;104524;1309;61551;-81
2022/06/22 12:15:08;;;;;;;;;;;;;;;26.53;32.50;100120.66;104393;1306;74008;-81
2022/06/22 12:17:43;;;;;;;;;;;;;;;26.54;32.55;100112.81;104803;1307;74992;-81
2022/06/22 12:20:20;;;;;;;;;;;;;;;26.55;32.42;100108.16;104983;1302;61708;-81
2022/06/22 12:23:03;;;;;;;;;;;;;;;26.57;32.56;100100.98;105201;1303;61266;-81
2022/06/22 12:25:35;;;;;;;;;;;;;;;26.58;32.61;100114.59;105221;1302;73671;-81
2022/06/22 12:28:15;;;;;;;;;;;;;;;26.58;32.66;100119.80;105219;1302;74702;-81
2022/06/22 12:30:47;;;;;;;;;;;;;;;26.59;32.69;100122.59;105204;1303;61479;-81
2022/06/22 12:33:23;;;;;;;;;;;;;;;26.59;32.63;100121.64;105112;1303;61485;-81
2022/06/22 12:36:10;;;;;;;;;;;;;;;26.60;32.57;100117.41;105194;1302;72637;-81
2022/06/22 12:38:37;;;;;;;;;;;;;;;26.60;32.78;100115.77;105125;1301;74246;-81
2022/06/22 12:41:04;;;;;;;;;;;;;;;26.61;32.80;100109.42;104885;1303;61140;-81
2022/06/22 12:43:39;;;;;;;;;;;;;;;26.60;32.79;100108.01;104929;1301;61266;-81
2022/06/22 12:46:25;;;;;;;;;;;;;;;26.61;32.86;100106.86;105004;1303;73898;-81
2022/06/22 12:48:54;;;;;;;;;;;;;;;26.62;32.99;100107.02;105073;1303;74489;-81
2022/06/22 12:51:26;;;;;;;;;;;;;;;26.61;33.01;100109.60;105175;1303;61160;-80
2022/06/22 12:53:54;;;;;;;;;;;;;;;26.61;33.04;100117.02;105229;1301;61230;-81
2022/06/22 12:56:23;;;;;;;;;;;;;;;26.62;33.02;100115.80;105131;1302;72741;-81
2022/06/22 12:58:50;;;;;;;;;;;;;;;26.64;33.23;100110.43;105006;1301;73851;-81
2022/06/22 13:01:15;;;;;;;;;;;;;;;26.65;32.97;100109.58;104771;1303;61283;-81
2022/06/22 13:03:43;;;;;;;;;;;;;;;26.66;33.16;100102.61;105044;1301;61294;-81
2022/06/22 13:06:08;;;;;;;;;;;;;;;26.67;33.32;100097.06;104841;1303;72329;-81
2022/06/22 13:08:34;;;;;;;;;;;;;;;26.68;33.30;100097.14;105083;1303;61315;-81
2022/06/22 13:11:02;;;;;;;;;;;;;;;26.69;33.19;100098.29;104965;1302;61259;-81
2022/06/22 13:13:40;;;;;;;;;;;;;;;26.69;33.29;100099.52;105146;1303;61248;-81
2022/06/22 13:16:10;;;;;;;;;;;;;;;26.70;33.35;100100.38;105088;1301;73763;-81